createdAt,value
2018-12-05T00:01:01.936Z,1017.58
2018-12-05T00:01:53.212Z,1017.58
2018-12-05T00:03:47.944Z,1017.56
2018-12-05T00:04:48.742Z,1017.60
2018-12-05T00:06:53.591Z,1017.59
2018-12-05T00:07:51.486Z,1017.49
2018-12-05T00:09:46.082Z,1017.50
2018-12-05T00:10:45.990Z,1017.50
2018-12-05T00:12:41.197Z,1017.44
2018-12-05T00:13:31.394Z,1017.42
2018-12-05T00:15:25.910Z,1017.35
2018-12-05T00:16:25.615Z,1017.37
2018-12-05T00:18:28.860Z,1017.34
2018-12-05T00:19:28.676Z,1017.33
2018-12-05T00:21:13.326Z,1017.29
2018-12-05T00:22:21.985Z,1017.24
2018-12-05T00:24:16.159Z,1017.21
2018-12-05T00:25:07.387Z,1017.27
2018-12-05T00:27:10.486Z,1017.31
2018-12-05T00:28:10.591Z,1017.22
2018-12-05T00:30:04.668Z,1017.28
2018-12-05T00:31:04.156Z,1017.30
2018-12-05T00:32:50.886Z,1017.28
2018-12-05T00:33:59.016Z,1017.29
2018-12-05T00:35:52.201Z,1017.31
2018-12-05T00:36:53.349Z,1017.35
2018-12-05T00:38:48.463Z,1017.36
2018-12-05T00:39:48.209Z,1017.33
2018-12-05T00:41:33.194Z,1017.37
2018-12-05T00:44:05.491Z,1017.35
2018-12-05T00:45:05.440Z,1017.39
2018-12-05T00:46:58.947Z,1017.46
2018-12-05T00:47:58.186Z,1017.42
2018-12-05T00:49:54.002Z,1017.44
2018-12-05T00:52:18.390Z,1017.47
2018-12-05T00:53:19.446Z,1017.47
2018-12-05T00:55:05.090Z,1017.44
2018-12-05T00:56:04.913Z,1017.45
2018-12-05T00:58:08.550Z,1017.43
2018-12-05T00:59:08.025Z,1017.44
2018-12-05T01:00:52.500Z,1017.44
2018-12-05T01:02:00.806Z,1017.41
2018-12-05T01:03:46.824Z,1017.43
2018-12-05T01:04:55.380Z,1017.39
2018-12-05T01:06:48.872Z,1017.40
2018-12-05T01:07:49.872Z,1017.39
2018-12-05T01:09:44.373Z,1017.44
2018-12-05T01:10:35.311Z,1017.45
2018-12-05T01:12:29.553Z,1017.37
2018-12-05T01:13:37.192Z,1017.38
2018-12-05T01:15:23.992Z,1017.32
2018-12-05T01:16:23.763Z,1017.31
2018-12-05T01:18:26.761Z,1017.27
2018-12-05T01:19:26.707Z,1017.27
2018-12-05T01:21:22.304Z,1017.29
2018-12-05T01:22:23.071Z,1017.30
2018-12-05T01:24:07.712Z,1017.22
2018-12-05T01:25:07.480Z,1017.22
2018-12-05T01:27:01.897Z,1017.20
2018-12-05T01:28:01.846Z,1017.18
2018-12-05T01:29:56.237Z,1017.15
2018-12-05T01:30:56.006Z,1017.13
2018-12-05T01:32:51.416Z,1017.10
2018-12-05T01:33:51.434Z,1017.13
2018-12-05T01:35:52.315Z,1017.16
2018-12-05T01:36:44.523Z,1017.18
2018-12-05T01:38:38.840Z,1017.24
2018-12-05T01:39:38.912Z,1017.24
2018-12-05T01:41:33.425Z,1017.20
2018-12-05T01:42:33.075Z,1017.21
2018-12-05T01:44:27.419Z,1017.19
2018-12-05T01:45:27.357Z,1017.20
2018-12-05T01:47:21.652Z,1017.17
2018-12-05T01:48:21.740Z,1017.15
2018-12-05T01:50:23.578Z,1017.16
2018-12-05T01:51:14.835Z,1017.16
2018-12-05T01:53:17.981Z,1017.14
2018-12-05T01:54:09.185Z,1017.11
2018-12-05T01:56:02.612Z,1017.16
2018-12-05T01:57:11.278Z,1017.16
2018-12-05T01:59:04.578Z,1017.23
2018-12-05T01:59:56.786Z,1017.25
2018-12-05T02:01:51.203Z,1017.23
2018-12-05T02:02:51.009Z,1017.22
2018-12-05T02:04:45.531Z,1017.22
2018-12-05T02:05:45.411Z,1017.20
2018-12-05T02:07:39.715Z,1017.20
2018-12-05T02:08:39.599Z,1017.21
2018-12-05T02:10:41.615Z,1017.18
2018-12-05T02:11:42.555Z,1017.15
2018-12-05T02:13:35.826Z,1017.16
2018-12-05T02:14:34.906Z,1017.15
2018-12-05T02:16:30.174Z,1017.13
2018-12-05T02:17:21.380Z,1017.12
2018-12-05T02:19:14.804Z,1017.10
2018-12-05T02:20:14.680Z,1017.13
2018-12-05T02:22:17.846Z,1017.05
2018-12-05T02:23:08.864Z,1017.10
2018-12-05T02:25:03.445Z,1017.09
2018-12-05T02:26:03.216Z,1017.12
2018-12-05T02:28:06.199Z,1017.11
2018-12-05T02:29:06.042Z,1017.06
2018-12-05T02:30:50.721Z,1017.03
2018-12-05T02:31:50.657Z,1017.07
2018-12-05T02:33:53.761Z,1017.11
2018-12-05T02:34:53.761Z,1017.11
2018-12-05T02:36:46.970Z,1017.12
2018-12-05T02:37:38.117Z,1017.14
2018-12-05T02:39:40.227Z,1017.08
2018-12-05T02:40:40.171Z,1017.03
2018-12-05T02:42:34.560Z,1016.97
2018-12-05T02:43:35.513Z,1016.95
2018-12-05T02:45:28.730Z,1016.93
2018-12-05T02:46:19.942Z,1016.94
2018-12-05T02:48:22.076Z,1016.94
2018-12-05T02:49:20.905Z,1016.88
2018-12-05T02:51:14.286Z,1016.88
2018-12-05T02:52:14.127Z,1016.87
2018-12-05T02:54:09.653Z,1016.85
2018-12-05T02:55:09.459Z,1016.82
2018-12-05T02:57:02.812Z,1016.86
2018-12-05T02:57:54.013Z,1016.87
2018-12-05T02:59:48.350Z,1016.85
2018-12-05T03:00:48.243Z,1016.77
2018-12-05T03:02:50.220Z,1016.67
2018-12-05T03:03:42.523Z,1016.67
2018-12-05T03:05:36.182Z,1016.66
2018-12-05T03:06:44.571Z,1016.65
2018-12-05T03:08:38.831Z,1016.66
2018-12-05T03:09:30.037Z,1016.65
2018-12-05T03:11:23.428Z,1016.68
2018-12-05T03:12:23.367Z,1016.65
2018-12-05T03:14:26.431Z,1016.60
2018-12-05T03:15:16.648Z,1016.56
2018-12-05T03:17:17.608Z,1016.55
2018-12-05T03:18:09.826Z,1016.55
2018-12-05T03:20:03.138Z,1016.57
2018-12-05T03:21:03.017Z,1016.65
2018-12-05T03:22:57.413Z,1016.70
2018-12-05T03:23:57.517Z,1016.68
2018-12-05T03:25:51.678Z,1016.65
2018-12-05T03:26:51.678Z,1016.67
2018-12-05T03:28:52.663Z,1016.67
2018-12-05T03:29:44.794Z,1016.63
2018-12-05T03:31:38.373Z,1016.59
2018-12-05T03:32:38.179Z,1016.61
2018-12-05T03:34:40.233Z,1016.61
2018-12-05T03:35:31.400Z,1016.67
2018-12-05T03:37:24.712Z,1016.74
2018-12-05T03:38:24.687Z,1016.73
2018-12-05T03:40:26.865Z,1016.70
2018-12-05T03:41:18.027Z,1016.65
2018-12-05T03:43:18.935Z,1016.63
2018-12-05T03:44:11.205Z,1016.60
2018-12-05T03:46:13.179Z,1016.59
2018-12-05T03:47:05.387Z,1016.51
2018-12-05T03:49:06.448Z,1016.52
2018-12-05T03:50:06.409Z,1016.47
2018-12-05T03:52:00.909Z,1016.54
2018-12-05T03:53:02.300Z,1016.59
2018-12-05T03:54:54.940Z,1016.61
2018-12-05T03:55:54.979Z,1016.61
2018-12-05T03:57:39.568Z,1016.61
2018-12-05T03:58:48.075Z,1016.62
2018-12-05T04:00:40.419Z,1016.63
2018-12-05T04:01:32.770Z,1016.66
2018-12-05T04:03:26.045Z,1016.65
2018-12-05T04:04:25.932Z,1016.68
2018-12-05T04:06:27.226Z,1016.63
2018-12-05T04:07:28.279Z,1016.64
2018-12-05T04:09:12.203Z,1016.62
2018-12-05T04:10:12.109Z,1016.62
2018-12-05T04:12:14.325Z,1016.56
2018-12-05T04:13:06.380Z,1016.57
2018-12-05T04:15:00.620Z,1016.61
2018-12-05T04:16:00.601Z,1016.66
2018-12-05T04:17:53.914Z,1016.67
2018-12-05T04:18:53.820Z,1016.64
2018-12-05T04:20:47.160Z,1016.65
2018-12-05T04:21:54.813Z,1016.70
2018-12-05T04:23:50.256Z,1016.73
2018-12-05T04:24:41.400Z,1016.77
2018-12-05T04:26:34.692Z,1016.76
2018-12-05T04:27:42.362Z,1016.74
2018-12-05T04:29:37.690Z,1016.71
2018-12-05T04:30:28.888Z,1016.72
2018-12-05T04:32:23.305Z,1016.69
2018-12-05T04:33:30.947Z,1016.69
2018-12-05T04:35:24.325Z,1016.68
2018-12-05T04:36:24.279Z,1016.69
2018-12-05T04:38:18.591Z,1016.70
2018-12-05T04:39:18.408Z,1016.72
2018-12-05T04:41:03.962Z,1016.72
2018-12-05T04:42:03.921Z,1016.73
2018-12-05T04:43:58.384Z,1016.82
2018-12-05T04:45:05.992Z,1016.80
2018-12-05T04:46:59.153Z,1016.79
2018-12-05T04:48:00.113Z,1016.81
2018-12-05T04:49:52.396Z,1016.76
2018-12-05T04:50:52.447Z,1016.77
2018-12-05T04:52:37.998Z,1016.70
2018-12-05T04:53:45.733Z,1016.68
2018-12-05T04:55:31.253Z,1016.67
2018-12-05T04:56:31.244Z,1016.64
2018-12-05T04:58:24.468Z,1016.72
2018-12-05T04:59:32.061Z,1016.72
2018-12-05T05:01:17.762Z,1016.68
2018-12-05T05:02:26.346Z,1016.75
2018-12-05T05:04:11.002Z,1016.69
2018-12-05T05:05:18.563Z,1016.68
2018-12-05T05:07:06.951Z,1016.67
2018-12-05T05:08:13.022Z,1016.66
2018-12-05T05:09:59.519Z,1016.65
2018-12-05T05:11:07.178Z,1016.62
2018-12-05T05:12:52.820Z,1016.60
2018-12-05T05:13:52.762Z,1016.51
2018-12-05T05:15:46.088Z,1016.48
2018-12-05T05:16:53.620Z,1016.44
2018-12-05T05:18:46.953Z,1016.46
2018-12-05T05:19:46.954Z,1016.49
2018-12-05T05:21:32.544Z,1016.43
2018-12-05T05:22:40.116Z,1016.43
2018-12-05T05:24:33.533Z,1016.45
2018-12-05T05:25:34.335Z,1016.43
2018-12-05T05:27:26.698Z,1016.42
2018-12-05T05:28:26.608Z,1016.43
2018-12-05T05:30:19.920Z,1016.40
2018-12-05T05:31:19.860Z,1016.37
2018-12-05T05:33:13.188Z,1016.36
2018-12-05T05:34:13.159Z,1016.36
2018-12-05T05:36:06.449Z,1016.36
2018-12-05T05:37:06.423Z,1016.36
2018-12-05T05:38:59.680Z,1016.36
2018-12-05T05:39:59.644Z,1016.31
2018-12-05T05:41:52.938Z,1016.23
2018-12-05T05:42:52.903Z,1016.24
2018-12-05T05:44:47.233Z,1016.24
2018-12-05T05:45:38.534Z,1016.31
2018-12-05T05:47:39.540Z,1016.32
2018-12-05T05:48:39.449Z,1016.32
2018-12-05T05:50:33.734Z,1016.41
2018-12-05T05:51:33.684Z,1016.43
2018-12-05T05:53:27.071Z,1016.41
2018-12-05T05:54:26.945Z,1016.40
2018-12-05T05:56:20.235Z,1016.41
2018-12-05T05:57:21.204Z,1016.37
2018-12-05T05:59:13.468Z,1016.37
2018-12-05T06:00:14.432Z,1016.36
2018-12-05T06:02:06.709Z,1016.33
2018-12-05T06:03:07.674Z,1016.29
2018-12-05T06:04:59.980Z,1016.37
2018-12-05T06:05:59.931Z,1016.36
2018-12-05T06:07:53.277Z,1016.37
2018-12-05T06:08:53.227Z,1016.39
2018-12-05T06:10:48.010Z,1016.32
2018-12-05T06:11:46.466Z,1016.30
2018-12-05T06:13:39.842Z,1016.30
2018-12-05T06:14:39.722Z,1016.31
2018-12-05T06:16:33.031Z,1016.27
2018-12-05T06:17:33.953Z,1016.21
2018-12-05T06:19:18.671Z,1016.19
2018-12-05T06:20:27.250Z,1016.15
2018-12-05T06:22:19.596Z,1016.19
2018-12-05T06:23:19.503Z,1016.16
2018-12-05T06:25:13.873Z,1016.14
2018-12-05T06:26:13.782Z,1016.20
2018-12-05T06:28:08.094Z,1016.24
2018-12-05T06:29:08.034Z,1016.23
2018-12-05T06:31:01.331Z,1016.24
2018-12-05T06:32:01.271Z,1016.19
2018-12-05T06:33:46.952Z,1016.27
2018-12-05T06:34:54.494Z,1016.28
2018-12-05T06:36:48.813Z,1016.39
2018-12-05T06:37:48.761Z,1016.39
2018-12-05T06:39:42.083Z,1016.36
2018-12-05T06:40:42.055Z,1016.37
2018-12-05T06:42:35.392Z,1016.36
2018-12-05T06:43:35.268Z,1016.37
2018-12-05T06:45:28.753Z,1016.41
2018-12-05T06:46:28.552Z,1016.40
2018-12-05T06:48:14.247Z,1016.36
2018-12-05T06:49:21.829Z,1016.34
2018-12-05T06:51:07.532Z,1016.34
2018-12-05T06:52:15.103Z,1016.37
2018-12-05T06:54:00.792Z,1016.44
2018-12-05T06:55:08.358Z,1016.39
2018-12-05T06:57:01.722Z,1016.43
2018-12-05T06:58:01.608Z,1016.36
2018-12-05T06:59:54.993Z,1016.35
2018-12-05T07:00:54.863Z,1016.28
2018-12-05T07:02:48.198Z,1016.34
2018-12-05T07:03:48.139Z,1016.38
2018-12-05T07:05:33.836Z,1016.33
2018-12-05T07:06:41.420Z,1016.34
2018-12-05T07:08:27.091Z,1016.37
2018-12-05T07:09:34.655Z,1016.41
2018-12-05T07:11:28.027Z,1016.47
2018-12-05T07:12:27.933Z,1016.50
2018-12-05T07:14:21.224Z,1016.42
2018-12-05T07:15:21.188Z,1016.46
2018-12-05T07:17:06.879Z,1016.52
2018-12-05T07:18:14.433Z,1016.52
2018-12-05T07:20:00.119Z,1016.55
2018-12-05T07:21:07.694Z,1016.54
2018-12-05T07:22:53.424Z,1016.50
2018-12-05T07:24:00.969Z,1016.53
2018-12-05T07:25:46.650Z,1016.57
2018-12-05T07:26:54.213Z,1016.49
2018-12-05T07:28:39.900Z,1016.49
2018-12-05T07:29:48.514Z,1016.50
2018-12-05T07:31:34.159Z,1016.47
2018-12-05T07:32:41.735Z,1016.44
2018-12-05T07:34:27.404Z,1016.44
2018-12-05T07:35:34.999Z,1016.46
2018-12-05T07:37:28.297Z,1016.46
2018-12-05T07:38:28.297Z,1016.44
2018-12-05T07:40:21.560Z,1016.47
2018-12-05T07:41:21.470Z,1016.47
2018-12-05T07:43:15.794Z,1016.43
2018-12-05T07:44:15.752Z,1016.39
2018-12-05T07:46:00.402Z,1016.39
2018-12-05T07:47:07.994Z,1016.38
2018-12-05T07:49:01.301Z,1016.37
2018-12-05T07:50:01.251Z,1016.34
2018-12-05T07:51:46.950Z,1016.27
2018-12-05T07:52:54.506Z,1016.27
2018-12-05T07:54:40.180Z,1016.28
2018-12-05T07:55:47.760Z,1016.27
2018-12-05T07:57:41.093Z,1016.24
2018-12-05T07:58:41.028Z,1016.29
2018-12-05T08:00:26.711Z,1016.37
2018-12-05T08:01:34.310Z,1016.30
2018-12-05T08:03:19.997Z,1016.26
2018-12-05T08:04:28.533Z,1016.30
2018-12-05T08:06:21.864Z,1016.24
2018-12-05T08:07:20.850Z,1016.25
2018-12-05T08:09:14.185Z,1016.21
2018-12-05T08:10:14.085Z,1016.18
2018-12-05T08:12:08.412Z,1016.09
2018-12-05T08:13:08.353Z,1016.14
2018-12-05T08:15:01.731Z,1016.11
2018-12-05T08:16:01.610Z,1016.09
2018-12-05T08:17:47.325Z,1016.07
2018-12-05T08:18:54.918Z,1016.05
2018-12-05T08:20:48.203Z,1016.01
2018-12-05T08:21:48.153Z,1016.00
2018-12-05T08:23:33.822Z,1015.95
2018-12-05T08:24:42.382Z,1015.90
2018-12-05T08:26:27.030Z,1015.89
2018-12-05T08:27:34.669Z,1015.85
2018-12-05T08:29:27.947Z,1015.87
2018-12-05T08:30:27.891Z,1015.78
2018-12-05T08:32:13.536Z,1015.76
2018-12-05T08:33:21.223Z,1015.78
2018-12-05T08:35:06.815Z,1015.76
2018-12-05T08:36:14.367Z,1015.75
2018-12-05T08:38:00.546Z,1015.75
2018-12-05T08:39:07.631Z,1015.77
2018-12-05T08:40:53.313Z,1015.74
2018-12-05T08:42:00.868Z,1015.77
2018-12-05T08:43:55.197Z,1015.77
2018-12-05T08:44:54.153Z,1015.79
2018-12-05T08:46:47.512Z,1015.70
2018-12-05T08:47:47.453Z,1015.69
2018-12-05T08:49:41.738Z,1015.66
2018-12-05T08:50:40.691Z,1015.67
2018-12-05T08:52:35.974Z,1015.68
2018-12-05T08:53:33.954Z,1015.70
2018-12-05T08:55:27.351Z,1015.67
2018-12-05T08:56:27.206Z,1015.69
2018-12-05T08:58:20.502Z,1015.77
2018-12-05T08:59:12.817Z,1015.78
2018-12-05T09:01:13.785Z,1015.82
2018-12-05T09:02:13.714Z,1015.83
2018-12-05T09:04:00.496Z,1015.76
2018-12-05T09:05:00.444Z,1015.77
2018-12-05T09:06:53.672Z,1015.74
2018-12-05T09:08:02.253Z,1015.73
2018-12-05T09:09:46.962Z,1015.68
2018-12-05T09:10:54.522Z,1015.73
2018-12-05T09:12:40.199Z,1015.68
2018-12-05T09:13:48.051Z,1015.67
2018-12-05T09:15:41.107Z,1015.68
2018-12-05T09:16:40.763Z,1015.65
2018-12-05T09:18:34.399Z,1015.63
2018-12-05T09:19:34.429Z,1015.61
2018-12-05T09:21:27.698Z,1015.54
2018-12-05T09:22:27.652Z,1015.55
2018-12-05T09:24:13.281Z,1015.49
2018-12-05T09:25:20.888Z,1015.47
2018-12-05T09:27:06.559Z,1015.49
2018-12-05T09:28:14.128Z,1015.44
2018-12-05T09:29:59.826Z,1015.42
2018-12-05T09:31:07.345Z,1015.37
2018-12-05T09:32:53.045Z,1015.39
2018-12-05T09:33:53.033Z,1015.41
2018-12-05T09:35:46.381Z,1015.42
2018-12-05T09:36:46.299Z,1015.35
2018-12-05T09:38:39.595Z,1015.30
2018-12-05T09:39:39.563Z,1015.29
2018-12-05T09:41:33.695Z,1015.25
2018-12-05T09:42:33.639Z,1015.21
2018-12-05T09:44:36.559Z,1015.23
2018-12-05T09:45:27.879Z,1015.21
2018-12-05T09:47:21.221Z,1015.24
2018-12-05T09:48:21.216Z,1015.22
2018-12-05T09:50:14.470Z,1015.26
2018-12-05T09:51:14.434Z,1015.28
2018-12-05T09:53:07.740Z,1015.25
2018-12-05T09:54:07.699Z,1015.24
2018-12-05T09:56:00.971Z,1015.26
2018-12-05T09:57:00.959Z,1015.26
2018-12-05T09:58:55.240Z,1015.23
2018-12-05T10:00:02.892Z,1015.24
2018-12-05T10:01:48.507Z,1015.26
2018-12-05T10:02:48.439Z,1015.29
2018-12-05T10:04:41.777Z,1015.23
2018-12-05T10:05:49.315Z,1015.21
2018-12-05T10:07:35.041Z,1015.21
2018-12-05T10:08:35.029Z,1015.19
2018-12-05T10:10:28.301Z,1015.21
2018-12-05T10:11:28.242Z,1015.26
2018-12-05T10:13:21.626Z,1015.26
2018-12-05T10:14:29.182Z,1015.25
2018-12-05T10:16:14.809Z,1015.22
2018-12-05T10:17:22.431Z,1015.24
2018-12-05T10:19:08.087Z,1015.24
2018-12-05T10:20:08.037Z,1015.22
2018-12-05T10:22:02.353Z,1015.23
2018-12-05T10:23:02.287Z,1015.22
2018-12-05T10:24:55.605Z,1015.22
2018-12-05T10:25:55.574Z,1015.20
2018-12-05T10:27:48.885Z,1015.20
2018-12-05T10:28:49.011Z,1015.19
2018-12-05T10:30:42.118Z,1015.17
2018-12-05T10:31:44.192Z,1015.33
2018-12-05T10:33:36.393Z,1015.27
2018-12-05T10:34:36.373Z,1015.29
2018-12-05T10:36:29.693Z,1014.94
2018-12-05T10:37:29.604Z,1014.93
2018-12-05T10:39:22.967Z,1014.88
2018-12-05T10:40:22.871Z,1014.85
2018-12-05T10:42:23.856Z,1014.81
2018-12-05T10:43:23.776Z,1014.79
2018-12-05T10:45:09.468Z,1014.70
2018-12-05T10:46:09.408Z,1014.65
2018-12-05T10:48:02.759Z,1014.60
2018-12-05T10:49:02.743Z,1014.56
2018-12-05T10:50:56.011Z,1014.56
2018-12-05T10:51:55.927Z,1014.57
2018-12-05T10:53:49.327Z,1014.51
2018-12-05T10:54:49.222Z,1014.53
2018-12-05T10:56:42.525Z,1014.45
2018-12-05T10:57:42.476Z,1014.39
2018-12-05T10:59:35.814Z,1014.37
2018-12-05T11:00:35.768Z,1014.35
2018-12-05T11:02:29.767Z,1014.32
2018-12-05T11:03:29.072Z,1014.36
2018-12-05T11:05:22.297Z,1014.36
2018-12-05T11:06:29.906Z,1014.35
2018-12-05T11:08:15.639Z,1014.38
2018-12-05T11:09:23.236Z,1014.29
2018-12-05T11:11:16.518Z,1014.30
2018-12-05T11:12:16.431Z,1014.30
2018-12-05T11:14:02.258Z,1014.28
2018-12-05T11:15:02.058Z,1014.32
2018-12-05T11:16:55.361Z,1014.24
2018-12-05T11:17:55.327Z,1014.24
2018-12-05T11:19:48.648Z,1014.22
2018-12-05T11:20:48.613Z,1014.19
2018-12-05T11:22:41.878Z,1014.15
2018-12-05T11:23:41.848Z,1014.09
2018-12-05T11:25:35.131Z,1014.06
2018-12-05T11:26:35.107Z,1014.04
2018-12-05T11:28:28.689Z,1014.04
2018-12-05T11:29:28.386Z,1014.04
2018-12-05T11:31:21.713Z,1014.06
2018-12-05T11:32:21.667Z,1014.01
2018-12-05T11:34:16.001Z,1013.92
2018-12-05T11:35:15.926Z,1013.91
2018-12-05T11:37:10.243Z,1013.88
2018-12-05T11:38:10.213Z,1013.90
2018-12-05T11:40:03.498Z,1013.81
2018-12-05T11:41:03.435Z,1013.87
2018-12-05T11:42:56.793Z,1013.81
2018-12-05T11:43:56.764Z,1013.77
2018-12-05T11:45:50.177Z,1013.77
2018-12-05T11:46:50.053Z,1013.80
2018-12-05T11:48:43.898Z,1013.75
2018-12-05T11:49:43.302Z,1013.70
2018-12-05T11:51:36.599Z,1013.73
2018-12-05T11:52:36.559Z,1013.71
2018-12-05T11:54:29.870Z,1013.68
2018-12-05T11:55:38.433Z,1013.69
2018-12-05T11:57:23.106Z,1013.71
2018-12-05T11:58:23.100Z,1013.70
2018-12-05T12:00:16.395Z,1013.75
2018-12-05T12:01:16.348Z,1013.76
2018-12-05T12:03:09.669Z,1013.98
2018-12-05T12:04:09.610Z,1013.94
2018-12-05T12:06:02.565Z,1013.92
2018-12-05T12:07:02.519Z,1013.96
2018-12-05T12:08:55.756Z,1013.81
2018-12-05T12:09:55.785Z,1013.93
2018-12-05T12:11:49.303Z,1013.98
2018-12-05T12:12:49.014Z,1013.93
2018-12-05T12:14:42.395Z,1013.88
2018-12-05T12:15:42.462Z,1013.88
2018-12-05T12:17:35.666Z,1013.71
2018-12-05T12:18:35.620Z,1013.78
2018-12-05T12:20:29.964Z,1013.76
2018-12-05T12:21:29.375Z,1013.68
2018-12-05T12:23:23.466Z,1013.76
2018-12-05T12:24:23.224Z,1013.71
2018-12-05T12:26:17.625Z,1013.65
2018-12-05T12:27:17.434Z,1013.65
2018-12-05T12:29:11.486Z,1013.59
2018-12-05T12:30:15.801Z,1013.54
2018-12-05T12:32:05.264Z,1013.55
2018-12-05T12:33:05.335Z,1013.56
2018-12-05T12:34:58.529Z,1013.54
2018-12-05T12:35:58.424Z,1013.57
2018-12-05T12:37:52.756Z,1013.54
2018-12-05T12:38:52.712Z,1013.50
2018-12-05T12:40:47.055Z,1013.20
2018-12-05T12:41:47.843Z,1013.21
2018-12-05T12:43:41.236Z,1013.26
2018-12-05T12:44:40.325Z,1013.21
2018-12-05T12:46:35.235Z,1013.25
2018-12-05T12:47:34.782Z,1013.24
2018-12-05T12:49:37.430Z,1013.28
2018-12-05T12:50:29.131Z,1013.22
2018-12-05T12:52:23.839Z,1013.23
2018-12-05T12:53:23.547Z,1013.23
2018-12-05T12:55:18.982Z,1013.19
2018-12-05T12:56:27.334Z,1013.14
2018-12-05T12:58:12.052Z,1013.11
2018-12-05T12:59:12.058Z,1013.09
2018-12-05T13:01:06.116Z,1013.07
2018-12-05T13:02:06.783Z,1013.07
2018-12-05T13:04:00.368Z,1013.00
2018-12-05T13:05:01.040Z,1012.94
2018-12-05T13:06:54.977Z,1012.89
2018-12-05T13:07:54.862Z,1012.87
2018-12-05T13:09:49.188Z,1012.94
2018-12-05T13:10:49.524Z,1012.89
2018-12-05T13:12:44.563Z,1012.83
2018-12-05T13:13:45.069Z,1012.84
2018-12-05T13:15:37.892Z,1012.74
2018-12-05T13:16:37.832Z,1012.72
2018-12-05T13:18:32.517Z,1012.70
2018-12-05T13:19:31.638Z,1012.66
2018-12-05T13:21:26.256Z,1012.62
2018-12-05T13:22:26.069Z,1012.61
2018-12-05T13:24:19.860Z,1012.53
2018-12-05T13:25:19.399Z,1012.49
2018-12-05T13:27:13.553Z,1012.45
2018-12-05T13:28:13.697Z,1012.46
2018-12-05T13:30:06.800Z,1012.44
2018-12-05T13:31:07.767Z,1012.42
2018-12-05T13:32:59.995Z,1012.41
2018-12-05T13:33:59.977Z,1012.38
2018-12-05T13:35:53.278Z,1012.33
2018-12-05T13:36:53.250Z,1012.34
2018-12-05T13:38:46.519Z,1012.30
2018-12-05T13:39:46.494Z,1012.25
2018-12-05T13:41:39.755Z,1012.24
2018-12-05T13:42:40.148Z,1012.19
2018-12-05T13:44:33.122Z,1012.25
2018-12-05T13:45:33.198Z,1012.20
2018-12-05T13:47:26.314Z,1012.17
2018-12-05T13:48:34.131Z,1012.16
2018-12-05T13:50:19.636Z,1012.13
2018-12-05T13:51:19.597Z,1012.17
2018-12-05T13:53:12.826Z,1012.18
2018-12-05T13:54:12.850Z,1012.18
2018-12-05T13:56:06.185Z,1012.17
2018-12-05T13:57:06.101Z,1012.19
2018-12-05T13:58:59.485Z,1012.16
2018-12-05T13:59:59.371Z,1012.11
2018-12-05T14:01:52.668Z,1012.08
2018-12-05T14:02:52.620Z,1012.10
2018-12-05T14:04:45.964Z,1012.10
2018-12-05T14:05:45.910Z,1012.07
2018-12-05T14:07:39.214Z,1012.05
2018-12-05T14:08:39.196Z,1012.00
2018-12-05T14:10:40.081Z,1011.94
2018-12-05T14:11:32.466Z,1011.91
2018-12-05T14:13:25.735Z,1011.92
2018-12-05T14:14:33.321Z,1011.92
2018-12-05T14:16:26.671Z,1011.92
2018-12-05T14:17:27.577Z,1011.88
2018-12-05T14:19:19.887Z,1011.85
2018-12-05T14:20:12.202Z,1011.85
2018-12-05T14:22:13.159Z,1011.82
2018-12-05T14:23:05.491Z,1011.82
2018-12-05T14:24:58.776Z,1011.78
2018-12-05T14:26:06.388Z,1011.80
2018-12-05T14:27:52.091Z,1011.77
2018-12-05T14:28:59.676Z,1011.79
2018-12-05T14:30:46.533Z,1011.76
2018-12-05T14:31:52.918Z,1011.72
2018-12-05T14:33:46.232Z,1011.67
2018-12-05T14:34:46.209Z,1011.69
2018-12-05T14:36:31.886Z,1011.64
2018-12-05T14:37:39.442Z,1011.65
2018-12-05T14:39:25.092Z,1011.60
2018-12-05T14:40:33.710Z,1011.61
2018-12-05T14:42:27.039Z,1011.60
2018-12-05T14:43:27.027Z,1011.62
2018-12-05T14:45:12.647Z,1011.56
2018-12-05T14:46:20.241Z,1011.54
2018-12-05T14:48:05.920Z,1011.53
2018-12-05T14:49:13.500Z,1011.51
2018-12-05T14:51:06.866Z,1011.48
2018-12-05T14:52:07.735Z,1011.45
2018-12-05T14:53:52.430Z,1011.45
2018-12-05T14:55:01.072Z,1011.45
2018-12-05T14:56:54.336Z,1011.43
2018-12-05T14:57:46.646Z,1011.43
2018-12-05T14:59:40.001Z,1011.40
2018-12-05T15:00:39.934Z,1011.40
2018-12-05T15:02:33.327Z,1011.39
2018-12-05T15:03:33.202Z,1011.34
2018-12-05T15:05:26.489Z,1011.32
2018-12-05T15:06:26.434Z,1011.26
2018-12-05T15:08:19.797Z,1011.31
2018-12-05T15:09:19.725Z,1011.27
2018-12-05T15:11:13.048Z,1011.25
2018-12-05T15:12:13.000Z,1011.26
2018-12-05T15:14:06.342Z,1011.22
2018-12-05T15:15:06.230Z,1011.18
2018-12-05T15:16:59.565Z,1011.14
2018-12-05T15:17:59.503Z,1011.13
2018-12-05T15:19:52.848Z,1011.07
2018-12-05T15:21:00.433Z,1011.06
2018-12-05T15:22:46.098Z,1011.02
2018-12-05T15:23:46.054Z,1010.98
2018-12-05T15:25:39.321Z,1010.95
2018-12-05T15:26:39.295Z,1010.89
2018-12-05T15:28:32.632Z,1010.87
2018-12-05T15:29:32.558Z,1010.86
2018-12-05T15:31:25.848Z,1010.82
2018-12-05T15:32:25.869Z,1010.81
2018-12-05T15:34:20.169Z,1010.78
2018-12-05T15:35:20.086Z,1010.74
2018-12-05T15:37:13.404Z,1010.66
2018-12-05T15:38:13.343Z,1010.67
2018-12-05T15:40:06.665Z,1010.60
2018-12-05T15:41:14.363Z,1010.56
2018-12-05T15:42:59.979Z,1010.54
2018-12-05T15:43:59.926Z,1010.46
2018-12-05T15:45:53.270Z,1010.43
2018-12-05T15:46:53.145Z,1010.41
2018-12-05T15:48:47.471Z,1010.31
2018-12-05T15:49:55.064Z,1010.32
2018-12-05T15:51:40.760Z,1010.30
2018-12-05T15:52:40.668Z,1010.33
2018-12-05T15:54:34.013Z,1010.35
2018-12-05T15:55:33.936Z,1010.33
2018-12-05T15:57:27.256Z,1010.36
2018-12-05T15:58:27.229Z,1010.34
2018-12-05T16:00:20.577Z,1010.34
2018-12-05T16:01:28.112Z,1010.32
2018-12-05T16:03:13.810Z,1010.28
2018-12-05T16:04:21.405Z,1010.23
2018-12-05T16:06:07.076Z,1010.18
2018-12-05T16:07:14.665Z,1010.21
2018-12-05T16:09:00.331Z,1010.15
2018-12-05T16:10:07.920Z,1010.12
2018-12-05T16:11:54.425Z,1010.11
2018-12-05T16:13:02.062Z,1010.11
2018-12-05T16:14:47.692Z,1010.12
2018-12-05T16:15:55.287Z,1010.12
2018-12-05T16:17:41.790Z,1010.03
2018-12-05T16:18:49.388Z,1010.01
2018-12-05T16:20:35.080Z,1009.96
2018-12-05T16:21:42.682Z,1009.94
2018-12-05T16:23:40.396Z,1009.87
2018-12-05T16:24:28.431Z,1009.85
2018-12-05T16:26:30.392Z,1009.85
2018-12-05T16:27:29.148Z,1009.81
2018-12-05T16:29:14.807Z,1009.82
2018-12-05T16:30:22.482Z,1009.83
2018-12-05T16:32:08.162Z,1009.86
2018-12-05T16:33:08.081Z,1009.88
2018-12-05T16:35:01.402Z,1009.90
2018-12-05T16:36:11.261Z,1009.92
2018-12-05T16:37:54.645Z,1009.89
2018-12-05T16:39:02.373Z,1009.86
2018-12-05T16:40:55.623Z,1009.78
2018-12-05T16:41:55.483Z,1009.84
2018-12-05T16:43:41.177Z,1009.78
2018-12-05T16:44:48.799Z,1009.79
2018-12-05T16:46:34.464Z,1009.80
2018-12-05T16:47:42.025Z,1009.80
2018-12-05T16:49:28.559Z,1009.79
2018-12-05T16:50:36.123Z,1009.79
2018-12-05T16:52:21.887Z,1009.81
2018-12-05T16:53:29.392Z,1009.79
2018-12-05T16:55:15.074Z,1009.73
2018-12-05T16:56:23.729Z,1009.72
2018-12-05T16:58:08.372Z,1009.67
2018-12-05T16:59:15.915Z,1009.68
2018-12-05T17:01:01.588Z,1009.69
2018-12-05T17:02:09.182Z,1009.66
2018-12-05T17:03:54.878Z,1009.65
2018-12-05T17:05:02.494Z,1009.61
2018-12-05T17:06:48.837Z,1009.54
2018-12-05T17:07:55.725Z,1009.52
2018-12-05T17:09:49.023Z,1009.52
2018-12-05T17:10:49.059Z,1009.51
2018-12-05T17:12:42.277Z,1009.49
2018-12-05T17:13:42.262Z,1009.43
2018-12-05T17:15:36.681Z,1009.40
2018-12-05T17:16:35.803Z,1009.42
2018-12-05T17:18:29.249Z,1009.41
2018-12-05T17:19:29.206Z,1009.38
2018-12-05T17:21:22.630Z,1009.39
2018-12-05T17:22:22.491Z,1009.41
2018-12-05T17:24:15.744Z,1009.38
2018-12-05T17:25:15.712Z,1009.29
2018-12-05T17:27:10.072Z,1009.23
2018-12-05T17:28:08.966Z,1009.13
2018-12-05T17:30:03.314Z,1009.17
2018-12-05T17:30:54.603Z,1009.17